Time;durP1;ratioP1;P1;durP2;ratioP2;P2;SDS_P1;SDS_P2;PMS_P1;PMS_P2;Temp;Humidity;BMP_temperature;BMP_pressure;BME280_temperature;BME280_humidity;BME280_pressure;Samples;Min_cycle;Max_cycle;Signal;HPM_P1;HPM_P2
2023/05/14 00:00:44;;;;;;;11.50;8.10;;;;;;;11.17;72.58;101260.83;107306;1256;61263;-68
2023/05/14 00:03:10;;;;;;;11.10;7.60;;;;;;;11.14;72.97;101262.39;106771;1256;71114;-68
2023/05/14 00:05:37;;;;;;;13.10;8.30;;;;;;;11.10;73.16;101260.11;106487;1257;61217;-68
2023/05/14 00:08:05;;;;;;;11.90;8.20;;;;;;;11.08;73.44;101256.84;106505;1256;61305;-68
2023/05/14 00:10:31;;;;;;;9.40;7.80;;;;;;;11.06;73.51;101255.48;107641;1257;75026;-68
2023/05/14 00:12:58;;;;;;;9.20;7.10;;;;;;;11.04;73.76;101251.35;106600;1257;69205;-70
2023/05/14 00:15:24;;;;;;;9.60;6.50;;;;;;;11.01;74.10;101250.02;107454;1260;72874;-68
2023/05/14 00:17:51;;;;;;;10.60;7.20;;;;;;;11.00;74.23;101251.02;106741;1257;61409;-67
2023/05/14 00:20:17;;;;;;;9.80;6.60;;;;;;;10.99;74.72;101252.08;106663;1256;59799;-70
2023/05/14 00:22:44;;;;;;;8.20;6.60;;;;;;;10.97;74.72;101249.08;106372;1257;61165;-68
2023/05/14 00:25:10;;;;;;;8.20;6.70;;;;;;;10.95;74.72;101246.08;106314;1256;61812;-69
2023/05/14 00:27:37;;;;;;;12.30;7.00;;;;;;;10.94;74.99;101244.10;106651;1257;61734;-68
2023/05/14 00:30:05;;;;;;;8.70;7.30;;;;;;;10.91;75.26;101239.14;107175;1256;61363;-70
2023/05/14 00:32:32;;;;;;;10.10;7.60;;;;;;;10.88;75.34;101239.59;106846;1257;61366;-69
2023/05/14 00:34:59;;;;;;;12.60;8.30;;;;;;;10.86;75.72;101239.82;106866;1255;74377;-68
2023/05/14 00:37:25;;;;;;;10.60;8.50;;;;;;;10.84;75.75;101244.29;106273;1259;71576;-67
2023/05/14 00:39:52;;;;;;;10.00;9.00;;;;;;;10.82;76.04;101241.51;106707;1256;71987;-69
2023/05/14 00:42:18;;;;;;;12.90;7.80;;;;;;;10.78;76.26;101236.81;106795;1257;61653;-69
2023/05/14 00:44:45;;;;;;;11.00;7.80;;;;;;;10.76;76.60;101239.01;106745;1256;61378;-67
2023/05/14 00:47:12;;;;;;;11.10;7.30;;;;;;;10.72;76.84;101235.27;106925;1258;61250;-68
2023/05/14 00:49:39;;;;;;;12.30;8.10;;;;;;;10.67;77.23;101234.94;107029;1257;69736;-69
2023/05/14 00:52:07;;;;;;;7.90;7.00;;;;;;;10.63;77.45;101234.33;106555;1256;72653;-70
2023/05/14 00:54:35;;;;;;;9.70;6.70;;;;;;;10.59;77.49;101234.73;106385;1257;61598;-67
2023/05/14 00:57:03;;;;;;;8.30;6.60;;;;;;;10.55;77.61;101233.41;106339;1256;61743;-70
2023/05/14 00:59:30;;;;;;;7.90;6.70;;;;;;;10.51;77.79;101236.14;106385;1257;74408;-71
2023/05/14 01:01:57;;;;;;;8.50;6.70;;;;;;;10.47;77.96;101238.13;106748;1256;70891;-69
2023/05/14 01:04:24;;;;;;;9.80;6.90;;;;;;;10.42;78.28;101239.36;106421;1257;71135;-66
2023/05/14 01:07:13;;;;;;;10.20;6.90;;;;;;;10.38;78.67;101239.09;106910;1257;62571;-68
2023/05/14 01:09:58;;;;;;;7.70;6.30;;;;;;;10.31;78.79;101239.95;107257;1257;62067;-68
2023/05/14 01:12:25;;;;;;;9.10;6.80;;;;;;;10.26;79.34;101235.66;106748;1256;73336;-68
2023/05/14 01:15:05;;;;;;;9.90;7.40;;;;;;;10.22;79.61;101237.54;107760;1256;71841;-68
2023/05/14 01:17:44;;;;;;;8.10;6.50;;;;;;;10.17;79.85;101236.98;108916;1257;71099;-68
2023/05/14 01:20:11;;;;;;;9.50;6.70;;;;;;;10.11;80.00;101236.98;107484;1257;61523;-69
2023/05/14 01:22:38;;;;;;;10.30;7.10;;;;;;;10.08;80.12;101233.13;107403;1255;61408;-69
2023/05/14 01:25:05;;;;;;;9.80;6.70;;;;;;;10.04;80.57;101233.21;108301;1256;73305;-68
2023/05/14 01:27:51;;;;;;;10.40;7.20;;;;;;;9.98;80.67;101234.24;106954;1257;70995;-69
2023/05/14 01:30:28;;;;;;;11.40;7.30;;;;;;;9.94;81.05;101234.88;106426;1256;72342;-69
2023/05/14 01:32:59;;;;;;;9.20;6.60;;;;;;;9.91;81.38;101232.55;106441;1256;62339;-69
2023/05/14 01:35:27;;;;;;;12.00;7.10;;;;;;;9.87;81.54;101232.43;106170;1256;61279;-67
2023/05/14 01:37:56;;;;;;;11.70;7.30;;;;;;;9.84;81.55;101233.86;106400;1257;73384;-68
2023/05/14 01:40:24;;;;;;;8.40;6.30;;;;;;;9.79;81.93;101230.92;106661;1256;71120;-68
2023/05/14 01:42:52;;;;;;;12.50;7.00;;;;;;;9.74;82.07;101230.89;106534;1256;72741;-70
2023/05/14 01:45:23;;;;;;;8.10;6.40;;;;;;;9.70;82.56;101229.27;106798;1256;62673;-72
2023/05/14 01:47:50;;;;;;;9.30;6.70;;;;;;;9.65;82.63;101231.00;106584;1256;61316;-68
2023/05/14 01:50:17;;;;;;;11.10;6.80;;;;;;;9.62;82.60;101229.19;106637;1255;75244;-69
2023/05/14 01:52:44;;;;;;;7.80;6.60;;;;;;;9.57;82.87;101227.30;106494;1257;71032;-69
2023/05/14 01:55:11;;;;;;;9.20;6.90;;;;;;;9.54;83.20;101230.00;106363;1256;71513;-69
2023/05/14 01:57:37;;;;;;;8.60;6.60;;;;;;;9.51;83.23;101227.98;106518;1255;61253;-69
2023/05/14 02:00:05;;;;;;;7.10;6.40;;;;;;;9.48;83.39;101226.17;107161;1256;61343;-67
2023/05/14 02:02:31;;;;;;;9.60;6.50;;;;;;;9.45;83.37;101225.37;107051;1256;73457;-68
2023/05/14 02:04:58;;;;;;;8.30;6.90;;;;;;;9.43;83.82;101223.96;106094;1257;61228;-68
2023/05/14 02:07:25;;;;;;;8.90;7.00;;;;;;;9.43;84.01;101224.75;106376;1256;73219;-69
2023/05/14 02:09:51;;;;;;;10.40;6.90;;;;;;;9.41;83.73;101225.27;106284;1256;61240;-67
2023/05/14 02:12:18;;;;;;;7.90;6.60;;;;;;;9.38;84.21;101217.38;106492;1259;62263;-68
2023/05/14 02:14:45;;;;;;;7.10;6.40;;;;;;;9.37;84.10;101218.95;106653;1256;74391;-71
2023/05/14 02:17:14;;;;;;;8.40;7.00;;;;;;;9.34;84.32;101212.65;106196;1258;69937;-68
2023/05/14 02:19:41;;;;;;;8.50;7.00;;;;;;;9.33;84.34;101213.16;107161;1256;71491;-69
2023/05/14 02:22:07;;;;;;;8.70;7.40;;;;;;;9.31;84.70;101210.55;106426;1258;61624;-67
2023/05/14 02:24:34;;;;;;;8.60;7.00;;;;;;;9.30;84.69;101211.76;107207;1255;61182;-67
2023/05/14 02:27:01;;;;;;;9.00;6.90;;;;;;;9.29;84.89;101211.48;106316;1257;73269;-68
2023/05/14 02:29:27;;;;;;;8.00;6.90;;;;;;;9.28;84.73;101209.42;106296;1257;70914;-71
2023/05/14 02:31:55;;;;;;;8.50;6.90;;;;;;;9.27;84.77;101204.61;106531;1256;72410;-68
2023/05/14 02:34:22;;;;;;;9.30;7.20;;;;;;;9.25;85.20;101209.36;106736;1255;61731;-67
2023/05/14 02:36:48;;;;;;;8.40;7.50;;;;;;;9.24;85.49;101204.95;107261;1256;61203;-69
2023/05/14 02:39:15;;;;;;;9.30;7.00;;;;;;;9.23;85.56;101208.15;106765;1255;73117;-67
2023/05/14 02:41:41;;;;;;;9.40;7.40;;;;;;;9.21;85.91;101205.16;106676;1256;69910;-69
2023/05/14 02:44:08;;;;;;;8.80;7.00;;;;;;;9.21;85.95;101206.95;106770;1255;61356;-68
2023/05/14 02:46:35;;;;;;;8.10;7.30;;;;;;;9.20;85.95;101205.47;106814;1256;61279;-68
2023/05/14 02:49:02;;;;;;;8.50;6.90;;;;;;;9.19;86.25;101206.15;107086;1256;61345;-69
2023/05/14 02:51:28;;;;;;;8.50;7.20;;;;;;;9.17;86.32;101204.70;106754;1257;74312;-69
2023/05/14 02:53:55;;;;;;;9.00;7.10;;;;;;;9.16;86.47;101207.47;106402;1257;61184;-67
2023/05/14 02:56:21;;;;;;;8.90;6.80;;;;;;;9.14;86.30;101205.23;107307;1257;72384;-68
2023/05/14 02:58:48;;;;;;;9.40;6.50;;;;;;;9.10;86.48;101201.14;106716;1257;61304;-69
2023/05/14 03:01:15;;;;;;;8.60;6.70;;;;;;;9.09;86.52;101199.90;106432;1257;61157;-66
2023/05/14 03:03:42;;;;;;;8.00;7.00;;;;;;;9.05;86.48;101199.87;106699;1256;74720;-69
2023/05/14 03:06:09;;;;;;;9.50;7.00;;;;;;;9.04;87.08;101198.99;106773;1256;70119;-68
2023/05/14 03:08:36;;;;;;;8.20;7.30;;;;;;;9.02;86.98;101199.33;106349;1256;71552;-69
2023/05/14 03:11:02;;;;;;;8.50;7.30;;;;;;;9.00;86.98;101200.91;106568;1260;61135;-68
2023/05/14 03:13:29;;;;;;;7.90;7.00;;;;;;;8.98;87.22;101200.34;106954;1256;61122;-68
2023/05/14 03:15:56;;;;;;;14.10;7.60;;;;;;;8.97;87.68;101200.96;106995;1257;73825;-67
2023/05/14 03:18:22;;;;;;;9.80;7.40;;;;;;;8.97;87.71;101200.16;106416;1256;70145;-69
2023/05/14 03:20:49;;;;;;;10.40;7.60;;;;;;;8.96;88.08;101198.67;106921;1257;61152;-69
2023/05/14 03:23:16;;;;;;;8.90;7.40;;;;;;;8.93;88.21;101195.96;106293;1257;61842;-68
2023/05/14 03:25:42;;;;;;;9.00;7.30;;;;;;;8.90;88.17;101201.89;106555;1257;59406;-68
2023/05/14 03:28:09;;;;;;;10.80;7.50;;;;;;;8.88;88.09;101199.44;106394;1256;74687;-67
2023/05/14 03:30:35;;;;;;;9.70;7.50;;;;;;;8.85;88.30;101200.43;106504;1256;61339;-68
2023/05/14 03:33:03;;;;;;;9.00;7.50;;;;;;;8.84;88.28;101203.42;107103;1256;71545;-66
2023/05/14 03:35:30;;;;;;;9.10;7.00;;;;;;;8.82;88.55;101197.91;106307;1257;61122;-70
2023/05/14 03:37:58;;;;;;;10.30;7.30;;;;;;;8.81;88.41;101197.90;106113;1257;61237;-68
2023/05/14 03:40:25;;;;;;;10.00;7.70;;;;;;;8.80;88.53;101199.55;106539;1261;73730;-68
2023/05/14 03:42:52;;;;;;;10.30;7.40;;;;;;;8.80;88.81;101199.41;106457;1256;71149;-67
2023/05/14 03:45:18;;;;;;;9.30;7.30;;;;;;;8.81;88.92;101202.27;106194;1260;70178;-71
2023/05/14 03:47:45;;;;;;;9.00;7.80;;;;;;;8.83;88.89;101198.23;106346;1256;61725;-68
2023/05/14 03:50:12;;;;;;;10.50;7.50;;;;;;;8.85;88.85;101197.25;106642;1261;62032;-69
2023/05/14 03:52:39;;;;;;;9.30;7.80;;;;;;;8.87;88.91;101195.52;106830;1256;74699;-72
2023/05/14 03:55:06;;;;;;;9.30;7.00;;;;;;;8.87;88.91;101198.30;106437;1256;69782;-71
2023/05/14 03:57:33;;;;;;;8.20;6.80;;;;;;;8.86;88.38;101199.66;106516;1257;72430;-69
2023/05/14 04:00:00;;;;;;;11.00;6.80;;;;;;;8.82;88.09;101200.89;106316;1262;61279;-67
2023/05/14 04:02:26;;;;;;;10.80;7.30;;;;;;;8.82;88.52;101197.92;106231;1260;61295;-68
2023/05/14 04:04:53;;;;;;;8.70;7.20;;;;;;;8.84;88.61;101198.26;106530;1257;74377;-67
2023/05/14 04:07:20;;;;;;;9.20;7.60;;;;;;;8.87;88.36;101199.06;106213;1257;71217;-68
2023/05/14 04:09:47;;;;;;;11.00;7.80;;;;;;;8.90;88.65;101197.48;107044;1256;71261;-67
2023/05/14 04:12:13;;;;;;;9.70;7.70;;;;;;;8.94;88.71;101194.95;106286;1260;61161;-67
2023/05/14 04:14:40;;;;;;;12.40;8.30;;;;;;;8.99;89.32;101195.35;106390;1256;61708;-69
2023/05/14 04:17:06;;;;;;;10.50;7.80;;;;;;;9.05;89.17;101192.98;106312;1256;73524;-69
2023/05/14 04:19:33;;;;;;;10.80;7.60;;;;;;;9.11;89.39;101193.52;106159;1256;68672;-71
2023/05/14 04:21:59;;;;;;;8.90;8.00;;;;;;;9.18;89.55;101195.77;106341;1256;61372;-71
2023/05/14 04:24:26;;;;;;;11.20;8.00;;;;;;;9.25;89.48;101192.27;106560;1258;61243;-67
2023/05/14 04:26:52;;;;;;;10.40;8.00;;;;;;;9.32;89.73;101193.97;106872;1256;61241;-68
2023/05/14 04:29:19;;;;;;;9.70;7.70;;;;;;;9.40;89.77;101195.54;106537;1256;74422;-69
2023/05/14 04:31:46;;;;;;;9.80;7.90;;;;;;;9.48;89.63;101188.54;106316;1256;61823;-70
2023/05/14 04:34:13;;;;;;;9.20;7.60;;;;;;;9.57;89.53;101187.44;106307;1257;71463;-68
2023/05/14 04:36:40;;;;;;;10.70;7.30;;;;;;;9.65;89.36;101186.33;106398;1257;61643;-67
2023/05/14 04:39:08;;;;;;;9.90;7.20;;;;;;;9.72;89.57;101184.35;106305;1257;61119;-67
2023/05/14 04:41:35;;;;;;;10.40;7.10;;;;;;;9.79;89.32;101184.29;106480;1258;73831;-68
2023/05/14 04:44:02;;;;;;;10.40;7.50;;;;;;;9.89;89.21;101185.43;106469;1257;71172;-68
2023/05/14 04:46:29;;;;;;;9.60;7.00;;;;;;;9.96;89.08;101184.81;106858;1264;72443;-67
2023/05/14 04:48:56;;;;;;;11.00;7.50;;;;;;;10.05;89.04;101185.34;106402;1256;61651;-67
2023/05/14 04:51:23;;;;;;;9.90;7.60;;;;;;;10.14;88.71;101186.34;106575;1256;61263;-67
2023/05/14 04:53:49;;;;;;;11.20;7.50;;;;;;;10.23;88.62;101184.91;106503;1260;73250;-68
2023/05/14 04:56:16;;;;;;;7.90;7.10;;;;;;;10.33;88.55;101184.74;106382;1260;69350;-67
2023/05/14 04:58:43;;;;;;;13.30;7.50;;;;;;;10.43;88.40;101190.05;106485;1257;71114;-66
2023/05/14 05:01:09;;;;;;;8.70;7.00;;;;;;;10.53;88.16;101191.48;106418;1256;61304;-68
2023/05/14 05:03:36;;;;;;;9.20;7.40;;;;;;;10.63;87.65;101187.67;106199;1256;61122;-68
2023/05/14 05:06:03;;;;;;;9.50;7.00;;;;;;;10.73;87.56;101186.77;106905;1258;74740;-67
2023/05/14 05:08:30;;;;;;;7.50;6.70;;;;;;;10.85;87.26;101190.02;106239;1256;71198;-68
2023/05/14 05:10:56;;;;;;;7.80;6.70;;;;;;;10.96;86.86;101184.09;106600;1257;73424;-69
2023/05/14 05:13:23;;;;;;;8.30;7.00;;;;;;;11.05;86.42;101187.00;107331;1256;61326;-69
2023/05/14 05:15:49;;;;;;;11.00;6.60;;;;;;;11.16;86.34;101186.22;107343;1257;59843;-69
2023/05/14 05:18:16;;;;;;;8.10;6.30;;;;;;;11.29;86.23;101185.50;106589;1256;74698;-71
2023/05/14 05:20:43;;;;;;;7.50;6.40;;;;;;;11.45;86.01;101184.82;107241;1256;61276;-68
2023/05/14 05:23:10;;;;;;;8.50;6.10;;;;;;;11.56;85.62;101186.06;106507;1257;71404;-68
2023/05/14 05:25:36;;;;;;;7.20;6.20;;;;;;;11.66;85.18;101187.27;106323;1256;61779;-68
2023/05/14 05:28:03;;;;;;;7.10;6.10;;;;;;;11.78;85.05;101183.74;106588;1256;61186;-68
2023/05/14 05:30:30;;;;;;;8.00;6.30;;;;;;;11.94;84.67;101186.65;106192;1256;74068;-68
2023/05/14 05:32:56;;;;;;;7.60;6.10;;;;;;;12.10;84.16;101180.64;106308;1256;68732;-70
2023/05/14 05:35:23;;;;;;;10.00;5.90;;;;;;;12.27;83.90;101180.33;106264;1258;72353;-70
2023/05/14 05:37:50;;;;;;;8.20;6.30;;;;;;;12.41;82.81;101178.16;106654;1256;61228;-68
2023/05/14 05:40:16;;;;;;;8.30;5.50;;;;;;;12.55;82.45;101177.31;106756;1256;61376;-68
2023/05/14 05:42:43;;;;;;;7.40;5.60;;;;;;;12.67;81.69;101176.92;106215;1257;73230;-66
2023/05/14 05:45:10;;;;;;;8.90;6.00;;;;;;;12.80;81.23;101178.27;106221;1260;62185;-68
2023/05/14 05:47:36;;;;;;;7.20;5.50;;;;;;;12.95;81.15;101179.98;106183;1256;73469;-68
2023/05/14 05:50:12;;;;;;;6.70;5.70;;;;;;;13.09;80.78;101177.73;106115;1256;61173;-67
2023/05/14 05:52:38;;;;;;;7.40;5.60;;;;;;;13.25;80.06;101179.11;106135;1259;61679;-67
2023/05/14 05:55:05;;;;;;;7.60;5.60;;;;;;;13.39;79.86;101179.09;106716;1257;61349;-67
2023/05/14 05:57:32;;;;;;;12.40;6.30;;;;;;;13.54;79.34;101185.86;106734;1256;71733;-67
2023/05/14 05:59:58;;;;;;;8.00;5.50;;;;;;;13.67;79.32;101184.68;106120;1256;61285;-68
2023/05/14 06:02:24;;;;;;;10.30;6.10;;;;;;;13.76;79.12;101186.20;106187;1256;61338;-68
2023/05/14 06:04:51;;;;;;;11.60;6.00;;;;;;;13.87;79.37;101182.65;106303;1256;59695;-67
2023/05/14 06:07:18;;;;;;;11.50;5.70;;;;;;;14.00;79.15;101182.67;106311;1256;74628;-66
2023/05/14 06:09:45;;;;;;;8.20;5.60;;;;;;;14.14;78.31;101184.73;106242;1257;62799;-71
2023/05/14 06:12:11;;;;;;;10.10;5.50;;;;;;;14.28;77.81;101186.05;105953;1257;61149;-68
2023/05/14 06:14:38;;;;;;;7.60;5.40;;;;;;;14.36;77.12;101185.08;107168;1256;61190;-66
2023/05/14 06:17:04;;;;;;;10.90;6.20;;;;;;;14.43;76.64;101186.88;106680;1257;61487;-67
2023/05/14 06:19:31;;;;;;;6.70;5.60;;;;;;;14.51;76.17;101188.40;106401;1257;61376;-70
2023/05/14 06:21:57;;;;;;;9.00;5.90;;;;;;;14.56;75.46;101189.19;106482;1260;61223;-70
2023/05/14 06:24:24;;;;;;;8.90;6.30;;;;;;;14.60;75.16;101185.98;106646;1258;61230;-68
2023/05/14 06:26:50;;;;;;;6.80;5.70;;;;;;;14.63;74.87;101186.75;106675;1256;61367;-67
2023/05/14 06:29:16;;;;;;;8.00;6.40;;;;;;;14.72;74.61;101189.10;106923;1256;61806;-66
2023/05/14 06:31:43;;;;;;;6.10;5.40;;;;;;;14.84;74.35;101186.02;107368;1256;61312;-67
2023/05/14 06:34:10;;;;;;;6.70;5.40;;;;;;;14.97;74.20;101187.58;108746;1256;59823;-67
2023/05/14 06:36:36;;;;;;;8.70;5.90;;;;;;;15.10;74.02;101185.55;108653;1256;58983;-67
2023/05/14 06:39:03;;;;;;;6.90;5.50;;;;;;;15.23;73.25;101186.56;107917;1256;62862;-67
2023/05/14 06:41:29;;;;;;;6.20;5.00;;;;;;;15.35;72.31;101187.55;107728;1257;61270;-67
2023/05/14 06:43:56;;;;;;;7.40;5.00;;;;;;;15.47;71.56;101183.17;107024;1256;63009;-68
2023/05/14 06:46:22;;;;;;;7.00;5.60;;;;;;;15.58;71.39;101185.05;106374;1257;61260;-67
2023/05/14 06:48:49;;;;;;;6.30;5.10;;;;;;;15.72;71.66;101181.58;106216;1261;61724;-66
2023/05/14 06:51:15;;;;;;;6.40;5.10;;;;;;;15.89;71.33;101179.98;107202;1256;61260;-67
2023/05/14 06:53:42;;;;;;;5.60;5.00;;;;;;;15.99;69.79;101174.31;106511;1257;61258;-67
2023/05/14 06:56:08;;;;;;;5.90;5.00;;;;;;;16.06;69.60;101173.16;106205;1257;61352;-68
2023/05/14 06:58:35;;;;;;;6.50;5.20;;;;;;;16.20;69.69;101174.59;106407;1256;61369;-68
2023/05/14 07:01:01;;;;;;;7.00;4.50;;;;;;;16.30;69.67;101175.09;106360;1257;61414;-67
2023/05/14 07:03:28;;;;;;;5.20;4.40;;;;;;;16.43;68.81;101173.23;106102;1257;61353;-67
2023/05/14 07:05:54;;;;;;;6.60;4.40;;;;;;;16.52;67.98;101173.74;106364;1257;61795;-67
2023/05/14 07:08:20;;;;;;;6.30;4.60;;;;;;;16.59;67.50;101172.32;106944;1257;61440;-67
2023/05/14 07:10:47;;;;;;;4.40;4.00;;;;;;;16.71;67.15;101176.45;106268;1259;62664;-68
2023/05/14 07:13:13;;;;;;;4.70;4.20;;;;;;;16.74;65.61;101167.98;106339;1256;62075;-67
2023/05/14 07:15:40;;;;;;;5.10;4.30;;;;;;;16.85;66.09;101164.44;106399;1257;61296;-68
2023/05/14 07:18:06;;;;;;;6.40;4.50;;;;;;;16.99;66.23;101166.52;106066;1258;61336;-71
2023/05/14 07:20:33;;;;;;;6.20;4.50;;;;;;;17.09;65.74;101166.05;106748;1257;61289;-72
2023/05/14 07:23:00;;;;;;;7.20;4.30;;;;;;;17.22;65.27;101165.02;106301;1262;61298;-71
2023/05/14 07:25:27;;;;;;;5.40;4.30;;;;;;;17.33;64.35;101162.61;106746;1257;59683;-71
2023/05/14 07:27:53;;;;;;;5.90;4.20;;;;;;;17.41;63.32;101159.52;107143;1257;61410;-71
2023/05/14 07:30:20;;;;;;;6.20;4.30;;;;;;;17.48;62.73;101155.70;106177;1256;61245;-72
2023/05/14 07:32:47;;;;;;;6.10;4.60;;;;;;;17.61;63.07;101155.52;106114;1259;61291;-73
2023/05/14 07:35:13;;;;;;;5.70;4.00;;;;;;;17.71;62.51;101153.21;106412;1257;61122;-70
2023/05/14 07:37:41;;;;;;;7.50;3.80;;;;;;;17.78;61.51;101148.98;106258;1256;61387;-70
2023/05/14 07:40:08;;;;;;;4.30;3.50;;;;;;;17.77;60.63;101147.02;106567;1256;61327;-71
2023/05/14 07:42:35;;;;;;;5.10;3.90;;;;;;;17.74;60.48;101142.98;106393;1257;61142;-72
2023/05/14 07:45:03;;;;;;;5.20;3.70;;;;;;;17.84;61.07;101140.86;106565;1257;73124;-71
2023/05/14 07:47:30;;;;;;;5.40;3.80;;;;;;;17.96;60.55;101139.79;107086;1256;71192;-71
2023/05/14 07:49:57;;;;;;;4.30;3.20;;;;;;;18.11;60.00;101140.33;106286;1256;71547;-71
2023/05/14 07:52:24;;;;;;;4.70;3.50;;;;;;;18.24;59.50;101137.59;106281;1257;62425;-72
2023/05/14 07:54:51;;;;;;;4.50;3.50;;;;;;;18.40;59.36;101139.23;106400;1257;62459;-71
2023/05/14 07:57:19;;;;;;;5.30;3.70;;;;;;;18.51;59.17;101139.61;106417;1257;73353;-71
2023/05/14 07:59:46;;;;;;;5.20;3.40;;;;;;;18.61;58.23;101139.75;106898;1257;70193;-71
2023/05/14 08:02:14;;;;;;;5.10;3.40;;;;;;;18.73;58.25;101136.29;106281;1257;72046;-70
2023/05/14 08:04:41;;;;;;;4.70;3.10;;;;;;;18.90;58.15;101138.91;106567;1259;61234;-73
2023/05/14 08:07:08;;;;;;;4.20;3.00;;;;;;;19.00;57.87;101136.39;106404;1257;61049;-71
2023/05/14 08:09:34;;;;;;;3.20;2.40;;;;;;;19.08;57.13;101137.60;106314;1256;74950;-72
2023/05/14 08:12:01;;;;;;;4.80;2.60;;;;;;;19.05;54.85;101133.70;106557;1257;61509;-73
2023/05/14 08:14:27;;;;;;;3.50;2.50;;;;;;;19.12;54.74;101135.37;106463;1257;61292;-70
2023/05/14 08:16:54;;;;;;;3.60;2.50;;;;;;;19.26;54.27;101137.36;106340;1257;61441;-72
2023/05/14 08:19:23;;;;;;;3.80;2.50;;;;;;;19.41;53.97;101136.14;106300;1258;61118;-72
2023/05/14 08:21:50;;;;;;;3.90;3.00;;;;;;;19.50;53.42;101131.32;106726;1258;74979;-71
2023/05/14 08:24:17;;;;;;;3.20;2.80;;;;;;;19.58;53.23;101130.45;106808;1256;208712;-70
2023/05/14 08:26:44;;;;;;;3.70;2.90;;;;;;;19.63;53.10;101125.84;106627;1258;70656;-73
2023/05/14 08:29:11;;;;;;;4.20;3.70;;;;;;;19.69;52.60;101126.32;106081;1257;61346;-72
2023/05/14 08:31:41;;;;;;;3.90;2.70;;;;;;;19.70;52.01;101125.23;106745;1257;61243;-71
2023/05/14 08:34:07;;;;;;;6.80;4.80;;;;;;;19.74;52.13;101128.38;107835;1256;74421;-72
2023/05/14 08:36:34;;;;;;;4.70;3.30;;;;;;;19.69;51.49;101128.27;106205;1257;61395;-72
2023/05/14 08:39:00;;;;;;;4.70;3.00;;;;;;;19.63;51.85;101130.43;106785;1261;70744;-72
2023/05/14 08:41:27;;;;;;;4.40;2.70;;;;;;;19.63;51.73;101128.08;106372;1256;61160;-72
2023/05/14 08:44:04;;;;;;;3.50;2.90;;;;;;;19.66;51.84;101125.76;106237;1257;61265;-71
2023/05/14 08:46:31;;;;;;;4.30;2.70;;;;;;;19.75;51.53;101122.48;106316;1256;74708;-74
2023/05/14 08:49:16;;;;;;;4.20;3.00;;;;;;;19.87;51.11;101111.08;106300;1258;71246;-72
2023/05/14 08:51:47;;;;;;;3.60;2.70;;;;;;;20.01;51.28;101111.35;106447;1262;74186;-72
2023/05/14 08:54:21;;;;;;;4.40;3.10;;;;;;;20.03;50.39;101106.36;106248;1259;61158;-73
2023/05/14 08:56:50;;;;;;;4.20;3.10;;;;;;;20.09;50.47;101106.20;106341;1257;61212;-71
2023/05/14 08:59:18;;;;;;;5.40;2.90;;;;;;;20.19;50.94;101099.13;106868;1259;74929;-70
2023/05/14 09:01:50;;;;;;;3.80;3.00;;;;;;;20.35;50.15;101095.88;106245;1262;70427;-70
2023/05/14 09:04:20;;;;;;;3.80;2.80;;;;;;;20.47;49.51;101093.10;107869;1257;72473;-71
2023/05/14 09:06:55;;;;;;;3.60;3.00;;;;;;;20.62;49.55;101090.17;107485;1259;61258;-71
2023/05/14 09:09:22;;;;;;;3.50;2.60;;;;;;;20.71;48.66;101087.92;107421;1259;60090;-73
2023/05/14 09:11:51;;;;;;;4.10;2.70;;;;;;;20.75;47.53;101089.64;106759;1259;74652;-72
2023/05/14 09:14:19;;;;;;;4.00;2.60;;;;;;;20.84;47.13;101087.84;107211;1259;70640;-71
2023/05/14 09:16:48;;;;;;;5.40;2.80;;;;;;;20.94;47.58;101086.71;106156;1257;73451;-71
2023/05/14 09:19:17;;;;;;;2.60;2.00;;;;;;;21.07;46.72;101082.32;106935;1256;61363;-71
2023/05/14 09:21:46;;;;;;;4.00;2.30;;;;;;;21.07;45.16;101083.36;106816;1260;61218;-72
2023/05/14 09:24:20;;;;;;;4.00;2.60;;;;;;;21.03;45.82;101084.73;106964;1260;73455;-71
2023/05/14 09:26:50;;;;;;;3.30;2.30;;;;;;;21.00;44.47;101082.45;107308;1257;69662;-70
2023/05/14 09:29:16;;;;;;;3.40;2.20;;;;;;;21.11;44.80;101079.47;106453;1257;71461;-71
2023/05/14 09:31:43;;;;;;;3.70;2.00;;;;;;;21.26;45.09;101079.19;106255;1257;61327;-73
2023/05/14 09:34:10;;;;;;;3.60;2.30;;;;;;;21.37;43.15;101073.60;106718;1257;61289;-72
2023/05/14 09:36:37;;;;;;;3.30;2.20;;;;;;;21.50;43.21;101072.28;107804;1257;74352;-72
2023/05/14 09:39:03;;;;;;;3.10;2.30;;;;;;;21.67;43.95;101071.86;107617;1257;70169;-73
2023/05/14 09:41:30;;;;;;;2.50;1.90;;;;;;;21.74;43.67;101070.27;106584;1257;72381;-75
2023/05/14 09:43:57;;;;;;;3.10;1.90;;;;;;;21.79;41.75;101064.64;107384;1257;61252;-72
2023/05/14 09:46:28;;;;;;;4.10;2.30;;;;;;;21.92;41.90;101066.84;106564;1256;61121;-71
2023/05/14 09:48:55;;;;;;;3.60;2.10;;;;;;;22.12;42.86;101061.70;106622;1258;73295;-72
2023/05/14 09:51:22;;;;;;;2.70;1.70;;;;;;;22.25;40.89;101059.84;106645;1260;70198;-72
2023/05/14 09:53:52;;;;;;;2.50;2.00;;;;;;;22.25;39.34;101056.70;106993;1256;71627;-71
2023/05/14 09:56:20;;;;;;;3.30;2.20;;;;;;;22.44;39.18;101059.56;107883;1262;59283;-70
2023/05/14 09:58:47;;;;;;;3.90;2.00;;;;;;;22.65;38.82;101053.58;106879;1257;61141;-72
2023/05/14 10:01:16;;;;;;;4.70;2.30;;;;;;;22.80;39.09;101049.84;106798;1258;73062;-72
2023/05/14 10:03:43;;;;;;;2.80;1.80;;;;;;;22.94;38.28;101041.11;106519;1257;69983;-71
2023/05/14 10:06:12;;;;;;;2.60;1.90;;;;;;;22.81;37.27;101041.05;106388;1257;72658;-72
2023/05/14 10:08:43;;;;;;;3.70;2.20;;;;;;;22.78;38.14;101039.55;106692;1260;61106;-72
2023/05/14 10:11:14;;;;;;;4.00;2.30;;;;;;;22.78;38.37;101034.20;106739;1257;61162;-73
2023/05/14 10:13:45;;;;;;;4.10;2.30;;;;;;;23.02;39.22;101027.84;107061;1257;74385;-71
2023/05/14 10:16:34;;;;;;;4.30;2.10;;;;;;;23.16;38.23;101029.88;106534;1257;70252;-71
2023/05/14 10:19:08;;;;;;;3.40;2.00;;;;;;;23.34;38.44;101028.10;106643;1257;72665;-75
2023/05/14 10:21:36;;;;;;;4.00;2.50;;;;;;;23.34;37.09;101025.77;106982;1256;61356;-71
2023/05/14 10:24:04;;;;;;;4.00;2.30;;;;;;;23.50;37.89;101019.09;106450;1257;61180;-71
2023/05/14 10:26:33;;;;;;;3.20;2.40;;;;;;;23.67;37.41;101015.53;106482;1257;72143;-73
2023/05/14 10:29:00;;;;;;;3.60;2.10;;;;;;;23.71;36.96;101012.27;106706;1260;70230;-70
2023/05/14 10:31:52;;;;;;;3.90;2.70;;;;;;;23.52;37.06;101012.17;106493;1257;72824;-71
2023/05/14 10:34:37;;;;;;;3.60;2.60;;;;;;;23.37;37.31;101014.39;106227;1257;61213;-73
2023/05/14 10:37:05;;;;;;;3.50;2.60;;;;;;;23.37;37.87;101013.03;106614;1256;61369;-72
2023/05/14 10:39:42;;;;;;;4.90;2.60;;;;;;;23.44;37.59;101008.78;106688;1256;73057;-71
2023/05/14 10:42:15;;;;;;;5.40;2.60;;;;;;;23.58;37.79;101007.75;106533;1256;71209;-73
2023/05/14 10:44:48;;;;;;;5.10;2.50;;;;;;;23.80;38.06;101003.13;106366;1257;72488;-74
2023/05/14 10:47:18;;;;;;;5.40;2.60;;;;;;;23.96;38.06;101000.47;106766;1257;62758;-72
2023/05/14 10:49:47;;;;;;;4.00;2.60;;;;;;;24.16;36.95;101000.52;106617;1256;62460;-72
2023/05/14 10:52:18;;;;;;;3.40;2.40;;;;;;;24.35;36.52;101000.52;106576;1261;74495;-72
2023/05/14 10:54:49;;;;;;;3.90;2.40;;;;;;;24.60;36.93;101002.90;106518;1256;69611;-71
2023/05/14 10:57:17;;;;;;;4.10;2.50;;;;;;;24.82;35.72;100997.28;106794;1257;70261;-71
2023/05/14 10:59:46;;;;;;;2.70;2.10;;;;;;;24.92;35.21;100997.17;106795;1256;59388;-71
2023/05/14 11:02:29;;;;;;;3.10;2.30;;;;;;;24.87;34.46;100993.94;106758;1256;61810;-71
2023/05/14 11:05:02;;;;;;;3.90;2.40;;;;;;;24.93;34.01;100986.98;106818;1256;73757;-71
2023/05/14 11:07:38;;;;;;;4.50;2.50;;;;;;;25.14;33.81;100986.59;106401;1256;71241;-73
2023/05/14 11:10:10;;;;;;;4.30;2.40;;;;;;;25.26;33.62;100983.23;106405;1257;71519;-73
2023/05/14 11:12:38;;;;;;;4.00;2.20;;;;;;;25.32;34.39;100987.39;106592;1257;61369;-73
2023/05/14 11:15:10;;;;;;;3.80;2.60;;;;;;;25.43;32.82;100983.40;106375;1257;61279;-73
2023/05/14 11:17:39;;;;;;;4.20;2.50;;;;;;;25.59;32.47;100979.20;106526;1257;73455;-72
2023/05/14 11:20:07;;;;;;;4.10;2.20;;;;;;;25.71;32.24;100976.45;106853;1256;69715;-72